CG Stratton — NHTC — position and weather

sailwx.info

Track history (hours):
 
Tides and Currents Weather Stations Pressure Air Temp Water Temp Dewpoint Dewpoint Depression Visibility Wind Speed Wind Dir Waves Ship Positions

CG Stratton

Last reported at 2018-Jun-23 02:39 UTC. Time now 2018-Jun-25 17:30 UTC.
Position N 38°39' W 123°59'.

Length 140 m.

Type: Law enforcement. MMSI: 368798000.

Date/timePositionNaut miles runAvg speedWind from/ knotsBaromVisibWave heightAir tempDewpointWater temp
2018-Jun-23 02:39N 38°39' W 123°59'212.3
2018-Jun-23 02:27N 38°37' W 123°56'2 5.0
2018-Jun-23 01:58N 38°35' W 123°54'3 7.1
2018-Jun-23 01:30N 38°33' W 123°51'612.4
2018-Jun-23 00:59N 38°29' W 123°45'612.2
2018-Jun-23 00:30N 38°24' W 123°40'612.1
2018-Jun-23 00:00N 38°20' W 123°34'4 8.4
2018-Jun-22 23:30N 38°17' W 123°31'1 2.7
2018-Jun-22 23:01N 38°16' W 123°30'1 2.7
2018-Jun-22 22:30N 38°15' W 123°29'2 4.4
2018-Jun-22 22:00N 38°14' W 123°26'510.1
2018-Jun-22 21:31N 38°10' W 123°22'3 6.4
2018-Jun-22 21:01N 38°08' W 123°19'510.4
2018-Jun-22 20:30N 38°04' W 123°14'612.9
2018-Jun-22 20:01N 37°59' W 123°09'714.7
2018-Jun-22 19:31N 37°55' W 123°01'815.0
2018-Jun-22 19:01N 37°52' W 122°53'917.7
2018-Jun-22 18:31N 37°47' W 122°43'815.6
2018-Jun-22 18:00N 37°48' W 122°33'714.8
2018-Jun-22 17:30N 37°49' W 122°24'510.0
2018-Jun-22 17:00N 37°48' W 122°18'2 4.3
2018-Jun-22 16:30N 37°47' W 122°16'1 1.2
2018-Jun-22 15:59N 37°47' W 122°15'0 0.0
2018-Jun-22 15:29N 37°47' W 122°15'0 0.0
2018-Jun-22 14:59N 37°47' W 122°15'0 0.0
2018-Jun-22 14:29N 37°47' W 122°15'0 0.0
2018-Jun-22 13:59N 37°47' W 122°15'0 0.0
2018-Jun-22 13:29N 37°47' W 122°15'0 0.0
2018-Jun-22 12:59N 37°47' W 122°15'0 0.0
2018-Jun-22 12:29N 37°47' W 122°15'0 0.0
2018-Jun-22 11:59N 37°47' W 122°15'0 0.0
2018-Jun-22 11:29N 37°47' W 122°15'0 0.0
2018-Jun-22 10:59N 37°47' W 122°15'0 0.0
2018-Jun-22 10:28N 37°47' W 122°15'0 0.0
2018-Jun-22 09:58N 37°47' W 122°15'0 0.0
2018-Jun-22 09:28N 37°47' W 122°15'0 0.0
2018-Jun-22 08:59N 37°47' W 122°15'0 0.0
2018-Jun-22 08:29N 37°47' W 122°15'0 0.0
2018-Jun-22 07:59N 37°47' W 122°15'0 0.0
2018-Jun-22 07:26N 37°47' W 122°15'0 0.0
2018-Jun-22 06:59N 37°47' W 122°15'0 0.0
2018-Jun-22 06:29N 37°47' W 122°15'0 0.0
2018-Jun-22 05:59N 37°47' W 122°15'0 0.0
2018-Jun-22 05:29N 37°47' W 122°15'0 0.0
2018-Jun-22 04:59N 37°47' W 122°15'0 0.0
2018-Jun-22 04:29N 37°47' W 122°15'0 0.0
2018-Jun-22 03:59N 37°47' W 122°15'0 0.0
2018-Jun-22 03:29N 37°47' W 122°15'0 0.0
2018-Jun-22 02:58N 37°47' W 122°15'0 0.0
2018-Jun-22 02:28N 37°47' W 122°15'0 0.0
2018-Jun-22 01:58N 37°47' W 122°15'0 0.0
2018-Jun-22 01:28N 37°47' W 122°15'0 0.0
2018-Jun-22 00:56N 37°47' W 122°15'0 0.0
2018-Jun-22 00:29N 37°47' W 122°15'0 0.0
2018-Jun-21 23:59N 37°47' W 122°15'0 0.0
2018-Jun-21 23:29N 37°47' W 122°15'0 0.0
2018-Jun-21 22:59N 37°47' W 122°15'0 0.0
2018-Jun-21 22:29N 37°47' W 122°15'0 0.0
2018-Jun-21 21:59N 37°47' W 122°15'0 0.0
2018-Jun-21 21:29N 37°47' W 122°15'0 0.0
2018-Jun-21 20:59N 37°47' W 122°15'0 0.0
2018-Jun-21 20:29N 37°47' W 122°15'0 0.0
2018-Jun-21 19:59N 37°47' W 122°15'0 0.0
2018-Jun-21 19:28N 37°47' W 122°15'0 0.0
2018-Jun-21 18:58N 37°47' W 122°15'0 0.0
2018-Jun-21 18:28N 37°47' W 122°15'  
2018-Jun-13 22:12N 37°47' W 122°15'0 0.0
2018-Jun-13 22:00N 37°47' W 122°15'0 0.0
2018-Jun-13 21:30N 37°47' W 122°15'0 0.0
2018-Jun-13 21:00N 37°47' W 122°15'0 0.0
2018-Jun-13 20:30N 37°47' W 122°15'0 0.0
2018-Jun-13 20:00N 37°47' W 122°15'0 0.0
2018-Jun-13 19:30N 37°47' W 122°15'0 0.0
2018-Jun-13 19:00N 37°47' W 122°15'0 0.0
2018-Jun-13 18:30N 37°47' W 122°15'0 0.0
2018-Jun-13 18:00N 37°47' W 122°15'0 0.0
2018-Jun-13 17:30N 37°47' W 122°15'0 0.0
2018-Jun-13 17:00N 37°47' W 122°15'0 0.0
2018-Jun-13 16:30N 37°47' W 122°15'0 0.0
2018-Jun-13 16:00N 37°47' W 122°15'0 0.0
2018-Jun-13 15:30N 37°47' W 122°15'0 0.0
2018-Jun-13 14:57N 37°47' W 122°15'0 0.0
2018-Jun-13 14:30N 37°47' W 122°15'  
Track history (hours):
 
Tides and Currents Weather Stations Pressure Air Temp Water Temp Dewpoint Dewpoint Depression Visibility Wind Speed Wind Dir Waves Ship Positions

CG Stratton

Last reported at 2018-Jun-23 02:39 UTC. Time now 2018-Jun-25 17:30 UTC.
Position N 38°39' W 123°59'.

Length 140 m.

Type: Law enforcement. MMSI: 368798000.

Date/timePositionNaut miles runAvg speedWind from/ knotsBaromVisibWave heightAir tempDewpointWater temp
2018-Jun-23 02:39N 38°39' W 123°59'212.3
2018-Jun-23 02:27N 38°37' W 123°56'2 5.0
2018-Jun-23 01:58N 38°35' W 123°54'3 7.1
2018-Jun-23 01:30N 38°33' W 123°51'612.4
2018-Jun-23 00:59N 38°29' W 123°45'612.2
2018-Jun-23 00:30N 38°24' W 123°40'612.1
2018-Jun-23 00:00N 38°20' W 123°34'4 8.4
2018-Jun-22 23:30N 38°17' W 123°31'1 2.7
2018-Jun-22 23:01N 38°16' W 123°30'1 2.7
2018-Jun-22 22:30N 38°15' W 123°29'2 4.4
2018-Jun-22 22:00N 38°14' W 123°26'510.1
2018-Jun-22 21:31N 38°10' W 123°22'3 6.4
2018-Jun-22 21:01N 38°08' W 123°19'510.4
2018-Jun-22 20:30N 38°04' W 123°14'612.9
2018-Jun-22 20:01N 37°59' W 123°09'714.7
2018-Jun-22 19:31N 37°55' W 123°01'815.0
2018-Jun-22 19:01N 37°52' W 122°53'917.7
2018-Jun-22 18:31N 37°47' W 122°43'815.6
2018-Jun-22 18:00N 37°48' W 122°33'714.8
2018-Jun-22 17:30N 37°49' W 122°24'510.0
2018-Jun-22 17:00N 37°48' W 122°18'2 4.3
2018-Jun-22 16:30N 37°47' W 122°16'1 1.2
2018-Jun-22 15:59N 37°47' W 122°15'0 0.0
2018-Jun-22 15:29N 37°47' W 122°15'0 0.0
2018-Jun-22 14:59N 37°47' W 122°15'0 0.0
2018-Jun-22 14:29N 37°47' W 122°15'0 0.0
2018-Jun-22 13:59N 37°47' W 122°15'0 0.0
2018-Jun-22 13:29N 37°47' W 122°15'0 0.0
2018-Jun-22 12:59N 37°47' W 122°15'0 0.0
2018-Jun-22 12:29N 37°47' W 122°15'0 0.0
2018-Jun-22 11:59N 37°47' W 122°15'0 0.0
2018-Jun-22 11:29N 37°47' W 122°15'0 0.0
2018-Jun-22 10:59N 37°47' W 122°15'0 0.0
2018-Jun-22 10:28N 37°47' W 122°15'0 0.0
2018-Jun-22 09:58N 37°47' W 122°15'0 0.0
2018-Jun-22 09:28N 37°47' W 122°15'0 0.0
2018-Jun-22 08:59N 37°47' W 122°15'0 0.0
2018-Jun-22 08:29N 37°47' W 122°15'0 0.0
2018-Jun-22 07:59N 37°47' W 122°15'0 0.0
2018-Jun-22 07:26N 37°47' W 122°15'0 0.0
2018-Jun-22 06:59N 37°47' W 122°15'0 0.0
2018-Jun-22 06:29N 37°47' W 122°15'0 0.0
2018-Jun-22 05:59N 37°47' W 122°15'0 0.0
2018-Jun-22 05:29N 37°47' W 122°15'0 0.0
2018-Jun-22 04:59N 37°47' W 122°15'0 0.0
2018-Jun-22 04:29N 37°47' W 122°15'0 0.0
2018-Jun-22 03:59N 37°47' W 122°15'0 0.0
2018-Jun-22 03:29N 37°47' W 122°15'0 0.0
2018-Jun-22 02:58N 37°47' W 122°15'0 0.0
2018-Jun-22 02:28N 37°47' W 122°15'0 0.0
2018-Jun-22 01:58N 37°47' W 122°15'0 0.0
2018-Jun-22 01:28N 37°47' W 122°15'0 0.0
2018-Jun-22 00:56N 37°47' W 122°15'0 0.0
2018-Jun-22 00:29N 37°47' W 122°15'0 0.0
2018-Jun-21 23:59N 37°47' W 122°15'0 0.0
2018-Jun-21 23:29N 37°47' W 122°15'0 0.0
2018-Jun-21 22:59N 37°47' W 122°15'0 0.0
2018-Jun-21 22:29N 37°47' W 122°15'0 0.0
2018-Jun-21 21:59N 37°47' W 122°15'0 0.0
2018-Jun-21 21:29N 37°47' W 122°15'0 0.0
2018-Jun-21 20:59N 37°47' W 122°15'0 0.0
2018-Jun-21 20:29N 37°47' W 122°15'0 0.0
2018-Jun-21 19:59N 37°47' W 122°15'0 0.0
2018-Jun-21 19:28N 37°47' W 122°15'0 0.0
2018-Jun-21 18:58N 37°47' W 122°15'0 0.0
2018-Jun-21 18:28N 37°47' W 122°15'  
2018-Jun-13 22:12N 37°47' W 122°15'0 0.0
2018-Jun-13 22:00N 37°47' W 122°15'0 0.0
2018-Jun-13 21:30N 37°47' W 122°15'0 0.0
2018-Jun-13 21:00N 37°47' W 122°15'0 0.0
2018-Jun-13 20:30N 37°47' W 122°15'0 0.0
2018-Jun-13 20:00N 37°47' W 122°15'0 0.0
2018-Jun-13 19:30N 37°47' W 122°15'0 0.0
2018-Jun-13 19:00N 37°47' W 122°15'0 0.0
2018-Jun-13 18:30N 37°47' W 122°15'0 0.0
2018-Jun-13 18:00N 37°47' W 122°15'0 0.0
2018-Jun-13 17:30N 37°47' W 122°15'0 0.0
2018-Jun-13 17:00N 37°47' W 122°15'0 0.0
2018-Jun-13 16:30N 37°47' W 122°15'0 0.0
2018-Jun-13 16:00N 37°47' W 122°15'0 0.0
2018-Jun-13 15:30N 37°47' W 122°15'0 0.0
2018-Jun-13 14:57N 37°47' W 122°15'0 0.0
2018-Jun-13 14:30N 37°47' W 122°15'  

Dump ship's entire track history